sensor_id;sensor_type;location;lat;lon;timestamp;P1;durP1;ratioP1;P2;durP2;ratioP2
51792;SDS011;37850;53.178;6.376;2023-07-13T00:01:46;11.65;;;2.95;;
51792;SDS011;37850;53.178;6.376;2023-07-13T00:04:15;16.13;;;3.20;;
51792;SDS011;37850;53.178;6.376;2023-07-13T00:06:42;13.25;;;3.17;;
51792;SDS011;37850;53.178;6.376;2023-07-13T00:09:13;12.25;;;2.83;;
51792;SDS011;37850;53.178;6.376;2023-07-13T00:11:41;16.83;;;3.38;;
51792;SDS011;37850;53.178;6.376;2023-07-13T00:14:08;10.80;;;2.75;;
51792;SDS011;37850;53.178;6.376;2023-07-13T00:16:35;11.90;;;2.83;;
51792;SDS011;37850;53.178;6.376;2023-07-13T00:19:03;13.13;;;2.95;;
51792;SDS011;37850;53.178;6.376;2023-07-13T00:21:29;13.77;;;2.97;;
51792;SDS011;37850;53.178;6.376;2023-07-13T00:23:56;11.82;;;2.70;;
51792;SDS011;37850;53.178;6.376;2023-07-13T00:26:22;14.68;;;3.22;;
51792;SDS011;37850;53.178;6.376;2023-07-13T00:28:48;12.95;;;2.58;;
51792;SDS011;37850;53.178;6.376;2023-07-13T00:31:14;12.35;;;2.88;;
51792;SDS011;37850;53.178;6.376;2023-07-13T00:33:41;12.15;;;2.88;;
51792;SDS011;37850;53.178;6.376;2023-07-13T00:36:07;12.05;;;2.75;;
51792;SDS011;37850;53.178;6.376;2023-07-13T00:38:33;11.65;;;2.65;;
51792;SDS011;37850;53.178;6.376;2023-07-13T00:40:59;11.55;;;2.97;;
51792;SDS011;37850;53.178;6.376;2023-07-13T00:43:26;16.70;;;3.35;;
51792;SDS011;37850;53.178;6.376;2023-07-13T00:48:31;14.40;;;3.00;;
51792;SDS011;37850;53.178;6.376;2023-07-13T00:50:59;13.13;;;3.17;;
51792;SDS011;37850;53.178;6.376;2023-07-13T00:53:26;13.93;;;3.42;;
51792;SDS011;37850;53.178;6.376;2023-07-13T00:55:55;16.65;;;3.05;;
51792;SDS011;37850;53.178;6.376;2023-07-13T00:58:22;13.30;;;3.20;;
51792;SDS011;37850;53.178;6.376;2023-07-13T01:03:18;15.68;;;3.20;;
51792;SDS011;37850;53.178;6.376;2023-07-13T01:05:44;17.20;;;3.20;;
51792;SDS011;37850;53.178;6.376;2023-07-13T01:08:13;16.42;;;4.03;;
51792;SDS011;37850;53.178;6.376;2023-07-13T01:10:39;14.80;;;2.70;;
51792;SDS011;37850;53.178;6.376;2023-07-13T01:13:06;11.85;;;3.65;;
51792;SDS011;37850;53.178;6.376;2023-07-13T01:18:09;13.57;;;3.28;;
51792;SDS011;37850;53.178;6.376;2023-07-13T01:20:40;14.85;;;3.03;;
51792;SDS011;37850;53.178;6.376;2023-07-13T01:23:08;12.75;;;3.33;;
51792;SDS011;37850;53.178;6.376;2023-07-13T01:25:35;14.25;;;3.53;;
51792;SDS011;37850;53.178;6.376;2023-07-13T01:28:02;15.60;;;3.10;;
51792;SDS011;37850;53.178;6.376;2023-07-13T01:30:29;11.65;;;2.90;;
51792;SDS011;37850;53.178;6.376;2023-07-13T01:32:56;10.10;;;2.55;;
51792;SDS011;37850;53.178;6.376;2023-07-13T01:35:21;13.25;;;2.72;;
51792;SDS011;37850;53.178;6.376;2023-07-13T01:37:48;9.88;;;1.95;;
51792;SDS011;37850;53.178;6.376;2023-07-13T01:40:14;9.70;;;2.38;;
51792;SDS011;37850;53.178;6.376;2023-07-13T01:42:39;8.45;;;2.35;;
51792;SDS011;37850;53.178;6.376;2023-07-13T01:45:05;9.00;;;1.90;;
51792;SDS011;37850;53.178;6.376;2023-07-13T01:47:31;6.90;;;1.63;;
51792;SDS011;37850;53.178;6.376;2023-07-13T01:49:57;8.57;;;1.73;;
51792;SDS011;37850;53.178;6.376;2023-07-13T01:52:23;9.98;;;1.27;;
51792;SDS011;37850;53.178;6.376;2023-07-13T01:54:50;6.40;;;1.33;;
51792;SDS011;37850;53.178;6.376;2023-07-13T01:57:15;7.65;;;1.30;;
51792;SDS011;37850;53.178;6.376;2023-07-13T01:59:41;4.88;;;1.27;;
51792;SDS011;37850;53.178;6.376;2023-07-13T02:02:07;5.88;;;1.40;;
51792;SDS011;37850;53.178;6.376;2023-07-13T02:04:33;5.78;;;1.30;;
51792;SDS011;37850;53.178;6.376;2023-07-13T02:07:00;5.10;;;0.82;;
51792;SDS011;37850;53.178;6.376;2023-07-13T02:09:26;3.55;;;0.98;;
51792;SDS011;37850;53.178;6.376;2023-07-13T02:11:52;6.63;;;1.08;;
51792;SDS011;37850;53.178;6.376;2023-07-13T02:14:17;4.78;;;1.05;;
51792;SDS011;37850;53.178;6.376;2023-07-13T02:16:43;4.95;;;1.42;;
51792;SDS011;37850;53.178;6.376;2023-07-13T02:19:09;5.47;;;0.88;;
51792;SDS011;37850;53.178;6.376;2023-07-13T02:21:35;4.25;;;1.20;;
51792;SDS011;37850;53.178;6.376;2023-07-13T02:24:00;4.88;;;1.00;;
51792;SDS011;37850;53.178;6.376;2023-07-13T02:26:26;4.63;;;1.10;;
51792;SDS011;37850;53.178;6.376;2023-07-13T02:28:53;4.00;;;1.15;;
51792;SDS011;37850;53.178;6.376;2023-07-13T02:31:18;7.57;;;1.13;;
51792;SDS011;37850;53.178;6.376;2023-07-13T02:33:45;7.57;;;1.48;;
51792;SDS011;37850;53.178;6.376;2023-07-13T02:36:12;4.63;;;1.30;;
51792;SDS011;37850;53.178;6.376;2023-07-13T02:38:41;5.95;;;1.20;;
51792;SDS011;37850;53.178;6.376;2023-07-13T02:41:07;6.85;;;1.67;;
51792;SDS011;37850;53.178;6.376;2023-07-13T02:43:34;6.72;;;1.70;;
51792;SDS011;37850;53.178;6.376;2023-07-13T02:46:01;4.55;;;1.13;;
51792;SDS011;37850;53.178;6.376;2023-07-13T02:48:33;7.60;;;1.60;;
51792;SDS011;37850;53.178;6.376;2023-07-13T02:50:59;5.20;;;1.40;;
51792;SDS011;37850;53.178;6.376;2023-07-13T02:53:25;6.85;;;1.60;;
51792;SDS011;37850;53.178;6.376;2023-07-13T02:55:50;6.72;;;1.48;;
51792;SDS011;37850;53.178;6.376;2023-07-13T02:58:16;7.60;;;1.65;;
51792;SDS011;37850;53.178;6.376;2023-07-13T03:00:43;5.28;;;1.90;;
51792;SDS011;37850;53.178;6.376;2023-07-13T03:03:11;6.15;;;1.85;;
51792;SDS011;37850;53.178;6.376;2023-07-13T03:05:40;7.82;;;1.83;;
51792;SDS011;37850;53.178;6.376;2023-07-13T03:08:08;9.23;;;2.50;;
51792;SDS011;37850;53.178;6.376;2023-07-13T03:10:34;8.70;;;2.38;;
51792;SDS011;37850;53.178;6.376;2023-07-13T03:13:01;15.82;;;2.75;;
51792;SDS011;37850;53.178;6.376;2023-07-13T03:15:27;12.70;;;2.85;;
51792;SDS011;37850;53.178;6.376;2023-07-13T03:17:52;13.65;;;3.45;;
51792;SDS011;37850;53.178;6.376;2023-07-13T03:20:18;15.45;;;3.72;;
51792;SDS011;37850;53.178;6.376;2023-07-13T03:22:45;13.98;;;3.53;;
51792;SDS011;37850;53.178;6.376;2023-07-13T03:25:11;15.07;;;4.05;;
51792;SDS011;37850;53.178;6.376;2023-07-13T03:27:37;13.10;;;3.10;;
51792;SDS011;37850;53.178;6.376;2023-07-13T03:30:04;15.13;;;4.45;;
51792;SDS011;37850;53.178;6.376;2023-07-13T03:32:30;13.60;;;3.58;;
51792;SDS011;37850;53.178;6.376;2023-07-13T03:34:56;16.50;;;3.67;;
51792;SDS011;37850;53.178;6.376;2023-07-13T03:37:22;18.27;;;3.78;;
51792;SDS011;37850;53.178;6.376;2023-07-13T03:39:48;12.45;;;3.25;;
51792;SDS011;37850;53.178;6.376;2023-07-13T03:42:15;16.30;;;3.63;;
51792;SDS011;37850;53.178;6.376;2023-07-13T03:44:41;14.60;;;3.30;;
51792;SDS011;37850;53.178;6.376;2023-07-13T03:47:07;11.70;;;3.28;;
51792;SDS011;37850;53.178;6.376;2023-07-13T03:49:34;17.92;;;3.50;;
51792;SDS011;37850;53.178;6.376;2023-07-13T03:52:00;18.60;;;4.18;;
51792;SDS011;37850;53.178;6.376;2023-07-13T03:54:26;16.85;;;4.00;;
51792;SDS011;37850;53.178;6.376;2023-07-13T03:56:52;13.77;;;3.60;;
51792;SDS011;37850;53.178;6.376;2023-07-13T03:59:18;10.30;;;3.28;;
51792;SDS011;37850;53.178;6.376;2023-07-13T04:01:43;14.60;;;3.53;;
51792;SDS011;37850;53.178;6.376;2023-07-13T04:04:10;14.90;;;3.20;;
51792;SDS011;37850;53.178;6.376;2023-07-13T04:06:35;13.32;;;3.28;;
51792;SDS011;37850;53.178;6.376;2023-07-13T04:09:02;12.00;;;4.05;;
51792;SDS011;37850;53.178;6.376;2023-07-13T04:11:30;14.88;;;3.75;;
51792;SDS011;37850;53.178;6.376;2023-07-13T04:13:57;15.60;;;3.55;;
51792;SDS011;37850;53.178;6.376;2023-07-13T04:16:23;16.65;;;3.65;;
51792;SDS011;37850;53.178;6.376;2023-07-13T04:18:49;15.32;;;3.42;;
51792;SDS011;37850;53.178;6.376;2023-07-13T04:21:19;16.73;;;3.83;;
51792;SDS011;37850;53.178;6.376;2023-07-13T04:23:45;18.95;;;3.30;;
51792;SDS011;37850;53.178;6.376;2023-07-13T04:26:12;17.40;;;3.55;;
51792;SDS011;37850;53.178;6.376;2023-07-13T04:28:37;16.73;;;3.72;;
51792;SDS011;37850;53.178;6.376;2023-07-13T04:31:03;13.45;;;3.40;;
51792;SDS011;37850;53.178;6.376;2023-07-13T04:33:29;16.73;;;3.58;;
51792;SDS011;37850;53.178;6.376;2023-07-13T04:35:56;15.00;;;3.40;;
51792;SDS011;37850;53.178;6.376;2023-07-13T04:38:26;13.45;;;3.15;;
51792;SDS011;37850;53.178;6.376;2023-07-13T04:40:55;14.23;;;3.40;;
51792;SDS011;37850;53.178;6.376;2023-07-13T04:43:22;17.35;;;3.42;;
51792;SDS011;37850;53.178;6.376;2023-07-13T04:45:50;15.25;;;4.00;;
51792;SDS011;37850;53.178;6.376;2023-07-13T04:48:20;18.25;;;3.47;;
51792;SDS011;37850;53.178;6.376;2023-07-13T04:50:56;17.48;;;3.30;;
51792;SDS011;37850;53.178;6.376;2023-07-13T04:53:22;12.63;;;3.42;;
51792;SDS011;37850;53.178;6.376;2023-07-13T04:55:48;13.45;;;3.03;;
51792;SDS011;37850;53.178;6.376;2023-07-13T04:58:14;15.25;;;3.30;;
51792;SDS011;37850;53.178;6.376;2023-07-13T05:00:40;17.15;;;3.45;;
51792;SDS011;37850;53.178;6.376;2023-07-13T05:03:06;8.45;;;2.72;;
51792;SDS011;37850;53.178;6.376;2023-07-13T05:05:32;14.85;;;4.07;;
51792;SDS011;37850;53.178;6.376;2023-07-13T05:07:57;16.85;;;3.10;;
51792;SDS011;37850;53.178;6.376;2023-07-13T05:10:23;11.93;;;2.53;;
51792;SDS011;37850;53.178;6.376;2023-07-13T05:12:49;14.80;;;3.40;;
51792;SDS011;37850;53.178;6.376;2023-07-13T05:15:15;11.10;;;2.72;;
51792;SDS011;37850;53.178;6.376;2023-07-13T05:17:46;11.10;;;2.80;;
51792;SDS011;37850;53.178;6.376;2023-07-13T05:20:12;11.73;;;2.75;;
51792;SDS011;37850;53.178;6.376;2023-07-13T05:22:38;12.88;;;3.35;;
51792;SDS011;37850;53.178;6.376;2023-07-13T05:25:05;10.38;;;2.90;;
51792;SDS011;37850;53.178;6.376;2023-07-13T05:27:32;12.40;;;2.60;;
51792;SDS011;37850;53.178;6.376;2023-07-13T05:29:58;11.18;;;3.15;;
51792;SDS011;37850;53.178;6.376;2023-07-13T05:32:24;12.85;;;2.38;;
51792;SDS011;37850;53.178;6.376;2023-07-13T05:34:50;12.77;;;2.80;;
51792;SDS011;37850;53.178;6.376;2023-07-13T05:37:16;10.35;;;2.80;;
51792;SDS011;37850;53.178;6.376;2023-07-13T05:39:41;15.48;;;2.92;;
51792;SDS011;37850;53.178;6.376;2023-07-13T05:42:07;16.73;;;2.75;;
51792;SDS011;37850;53.178;6.376;2023-07-13T05:44:33;10.50;;;3.17;;
51792;SDS011;37850;53.178;6.376;2023-07-13T05:46:59;9.93;;;2.42;;
51792;SDS011;37850;53.178;6.376;2023-07-13T05:49:24;14.57;;;2.97;;
51792;SDS011;37850;53.178;6.376;2023-07-13T05:51:50;15.77;;;3.35;;
51792;SDS011;37850;53.178;6.376;2023-07-13T05:54:16;10.98;;;2.72;;
51792;SDS011;37850;53.178;6.376;2023-07-13T05:56:42;15.05;;;2.67;;
51792;SDS011;37850;53.178;6.376;2023-07-13T05:59:08;12.45;;;2.70;;
51792;SDS011;37850;53.178;6.376;2023-07-13T06:01:33;11.55;;;2.60;;
51792;SDS011;37850;53.178;6.376;2023-07-13T06:03:59;10.05;;;2.53;;
51792;SDS011;37850;53.178;6.376;2023-07-13T06:06:25;10.82;;;2.65;;
51792;SDS011;37850;53.178;6.376;2023-07-13T06:08:51;9.38;;;2.50;;
51792;SDS011;37850;53.178;6.376;2023-07-13T06:11:18;8.70;;;2.42;;
51792;SDS011;37850;53.178;6.376;2023-07-13T06:13:46;10.90;;;2.85;;
51792;SDS011;37850;53.178;6.376;2023-07-13T06:16:12;9.75;;;2.40;;
51792;SDS011;37850;53.178;6.376;2023-07-13T06:18:39;11.15;;;3.25;;
51792;SDS011;37850;53.178;6.376;2023-07-13T06:21:07;10.40;;;2.35;;
51792;SDS011;37850;53.178;6.376;2023-07-13T06:23:37;12.98;;;2.50;;
51792;SDS011;37850;53.178;6.376;2023-07-13T06:26:03;10.93;;;2.20;;
51792;SDS011;37850;53.178;6.376;2023-07-13T06:28:30;13.43;;;2.85;;
51792;SDS011;37850;53.178;6.376;2023-07-13T06:30:57;11.18;;;2.55;;
51792;SDS011;37850;53.178;6.376;2023-07-13T06:33:23;12.35;;;2.70;;
51792;SDS011;37850;53.178;6.376;2023-07-13T06:35:49;11.32;;;2.50;;
51792;SDS011;37850;53.178;6.376;2023-07-13T06:38:15;10.40;;;2.70;;
51792;SDS011;37850;53.178;6.376;2023-07-13T06:40:41;13.15;;;2.58;;
51792;SDS011;37850;53.178;6.376;2023-07-13T06:43:07;10.40;;;2.00;;
51792;SDS011;37850;53.178;6.376;2023-07-13T06:45:35;8.93;;;2.13;;
51792;SDS011;37850;53.178;6.376;2023-07-13T06:48:06;11.55;;;2.35;;
51792;SDS011;37850;53.178;6.376;2023-07-13T06:50:33;11.85;;;2.50;;
51792;SDS011;37850;53.178;6.376;2023-07-13T06:52:59;12.20;;;2.22;;
51792;SDS011;37850;53.178;6.376;2023-07-13T06:55:25;11.75;;;2.47;;
51792;SDS011;37850;53.178;6.376;2023-07-13T06:57:51;13.13;;;2.35;;
51792;SDS011;37850;53.178;6.376;2023-07-13T07:00:17;15.63;;;3.28;;
51792;SDS011;37850;53.178;6.376;2023-07-13T07:02:43;11.18;;;2.20;;
51792;SDS011;37850;53.178;6.376;2023-07-13T07:05:09;9.80;;;1.95;;
51792;SDS011;37850;53.178;6.376;2023-07-13T07:07:35;10.90;;;1.92;;
51792;SDS011;37850;53.178;6.376;2023-07-13T07:10:00;12.18;;;2.10;;
51792;SDS011;37850;53.178;6.376;2023-07-13T07:12:26;7.40;;;1.70;;
51792;SDS011;37850;53.178;6.376;2023-07-13T07:14:52;9.73;;;1.92;;
51792;SDS011;37850;53.178;6.376;2023-07-13T07:17:18;9.52;;;1.63;;
51792;SDS011;37850;53.178;6.376;2023-07-13T07:19:44;6.65;;;1.75;;
51792;SDS011;37850;53.178;6.376;2023-07-13T07:22:09;12.18;;;1.90;;
51792;SDS011;37850;53.178;6.376;2023-07-13T07:24:35;7.97;;;1.65;;
51792;SDS011;37850;53.178;6.376;2023-07-13T07:27:01;6.65;;;1.67;;
51792;SDS011;37850;53.178;6.376;2023-07-13T07:29:27;9.68;;;1.75;;
51792;SDS011;37850;53.178;6.376;2023-07-13T07:31:53;8.48;;;1.90;;
51792;SDS011;37850;53.178;6.376;2023-07-13T07:34:19;7.05;;;2.13;;
51792;SDS011;37850;53.178;6.376;2023-07-13T07:36:45;9.75;;;2.10;;
51792;SDS011;37850;53.178;6.376;2023-07-13T07:39:11;7.00;;;1.90;;
51792;SDS011;37850;53.178;6.376;2023-07-13T07:41:37;10.25;;;2.13;;
51792;SDS011;37850;53.178;6.376;2023-07-13T07:44:03;10.80;;;2.45;;
51792;SDS011;37850;53.178;6.376;2023-07-13T07:46:29;9.57;;;2.00;;
51792;SDS011;37850;53.178;6.376;2023-07-13T07:48:55;11.02;;;2.40;;
51792;SDS011;37850;53.178;6.376;2023-07-13T07:51:22;11.40;;;2.08;;
51792;SDS011;37850;53.178;6.376;2023-07-13T07:53:48;6.50;;;1.80;;
51792;SDS011;37850;53.178;6.376;2023-07-13T07:56:14;10.00;;;2.00;;
51792;SDS011;37850;53.178;6.376;2023-07-13T07:58:41;10.15;;;2.22;;
51792;SDS011;37850;53.178;6.376;2023-07-13T08:01:07;7.10;;;1.98;;
51792;SDS011;37850;53.178;6.376;2023-07-13T08:03:33;8.55;;;1.90;;
51792;SDS011;37850;53.178;6.376;2023-07-13T08:05:59;9.35;;;1.98;;
51792;SDS011;37850;53.178;6.376;2023-07-13T08:08:25;6.13;;;2.13;;
51792;SDS011;37850;53.178;6.376;2023-07-13T08:10:51;5.65;;;1.40;;
51792;SDS011;37850;53.178;6.376;2023-07-13T08:13:17;6.57;;;1.80;;
51792;SDS011;37850;53.178;6.376;2023-07-13T08:15:43;7.38;;;2.08;;
51792;SDS011;37850;53.178;6.376;2023-07-13T08:18:10;8.65;;;2.35;;
51792;SDS011;37850;53.178;6.376;2023-07-13T08:20:38;6.75;;;1.92;;
51792;SDS011;37850;53.178;6.376;2023-07-13T08:23:05;7.32;;;2.03;;
51792;SDS011;37850;53.178;6.376;2023-07-13T08:25:31;10.57;;;2.22;;
51792;SDS011;37850;53.178;6.376;2023-07-13T08:27:57;8.80;;;2.20;;
51792;SDS011;37850;53.178;6.376;2023-07-13T08:30:23;8.27;;;2.05;;
51792;SDS011;37850;53.178;6.376;2023-07-13T08:32:49;9.27;;;2.40;;
51792;SDS011;37850;53.178;6.376;2023-07-13T08:35:15;12.05;;;2.58;;
51792;SDS011;37850;53.178;6.376;2023-07-13T08:37:42;9.95;;;2.38;;
51792;SDS011;37850;53.178;6.376;2023-07-13T08:40:08;9.57;;;2.03;;
51792;SDS011;37850;53.178;6.376;2023-07-13T08:45:14;8.98;;;2.00;;
51792;SDS011;37850;53.178;6.376;2023-07-13T08:50:47;10.70;;;2.45;;
51792;SDS011;37850;53.178;6.376;2023-07-13T08:53:23;10.18;;;2.17;;
51792;SDS011;37850;53.178;6.376;2023-07-13T08:55:59;10.30;;;2.63;;
51792;SDS011;37850;53.178;6.376;2023-07-13T08:58:26;7.32;;;1.77;;
51792;SDS011;37850;53.178;6.376;2023-07-13T09:04:03;8.68;;;1.95;;
51792;SDS011;37850;53.178;6.376;2023-07-13T09:06:40;7.53;;;2.55;;
51792;SDS011;37850;53.178;6.376;2023-07-13T09:15:07;7.95;;;1.90;;
51792;SDS011;37850;53.178;6.376;2023-07-13T09:17:56;6.83;;;2.00;;
51792;SDS011;37850;53.178;6.376;2023-07-13T09:23:13;7.65;;;2.10;;
51792;SDS011;37850;53.178;6.376;2023-07-13T09:25:43;9.77;;;2.00;;
51792;SDS011;37850;53.178;6.376;2023-07-13T09:28:15;5.63;;;1.75;;
51792;SDS011;37850;53.178;6.376;2023-07-13T09:30:56;8.60;;;1.90;;
51792;SDS011;37850;53.178;6.376;2023-07-13T09:33:29;6.00;;;1.60;;
51792;SDS011;37850;53.178;6.376;2023-07-13T09:35:59;8.40;;;1.98;;
51792;SDS011;37850;53.178;6.376;2023-07-13T09:38:27;5.85;;;1.75;;
51792;SDS011;37850;53.178;6.376;2023-07-13T09:44:00;6.95;;;1.42;;
51792;SDS011;37850;53.178;6.376;2023-07-13T09:46:26;8.88;;;1.95;;
51792;SDS011;37850;53.178;6.376;2023-07-13T09:48:52;4.70;;;1.38;;
51792;SDS011;37850;53.178;6.376;2023-07-13T09:51:18;8.75;;;1.50;;
51792;SDS011;37850;53.178;6.376;2023-07-13T09:53:43;8.43;;;1.67;;
51792;SDS011;37850;53.178;6.376;2023-07-13T09:56:19;5.38;;;1.38;;
51792;SDS011;37850;53.178;6.376;2023-07-13T09:58:49;6.10;;;1.17;;
51792;SDS011;37850;53.178;6.376;2023-07-13T10:01:15;4.70;;;0.98;;
51792;SDS011;37850;53.178;6.376;2023-07-13T10:03:55;6.78;;;1.30;;
51792;SDS011;37850;53.178;6.376;2023-07-13T10:06:21;5.25;;;1.20;;
51792;SDS011;37850;53.178;6.376;2023-07-13T10:08:48;5.10;;;0.90;;
51792;SDS011;37850;53.178;6.376;2023-07-13T10:11:17;3.67;;;1.05;;
51792;SDS011;37850;53.178;6.376;2023-07-13T10:13:52;9.00;;;1.10;;
51792;SDS011;37850;53.178;6.376;2023-07-13T10:16:21;4.32;;;1.08;;
51792;SDS011;37850;53.178;6.376;2023-07-13T10:18:50;7.95;;;1.25;;
51792;SDS011;37850;53.178;6.376;2023-07-13T10:21:21;5.13;;;1.05;;
51792;SDS011;37850;53.178;6.376;2023-07-13T10:23:52;6.18;;;1.42;;
51792;SDS011;37850;53.178;6.376;2023-07-13T10:26:25;6.03;;;1.10;;
51792;SDS011;37850;53.178;6.376;2023-07-13T10:28:56;4.65;;;1.10;;
51792;SDS011;37850;53.178;6.376;2023-07-13T10:31:26;4.80;;;1.00;;
51792;SDS011;37850;53.178;6.376;2023-07-13T10:33:52;6.25;;;1.00;;
51792;SDS011;37850;53.178;6.376;2023-07-13T10:36:34;5.65;;;1.23;;
51792;SDS011;37850;53.178;6.376;2023-07-13T10:39:17;4.78;;;1.13;;
51792;SDS011;37850;53.178;6.376;2023-07-13T10:41:47;5.00;;;0.90;;
51792;SDS011;37850;53.178;6.376;2023-07-13T10:44:26;4.05;;;0.93;;
51792;SDS011;37850;53.178;6.376;2023-07-13T10:46:56;5.28;;;1.00;;
51792;SDS011;37850;53.178;6.376;2023-07-13T10:49:34;3.95;;;1.00;;
51792;SDS011;37850;53.178;6.376;2023-07-13T10:52:02;4.20;;;1.17;;
51792;SDS011;37850;53.178;6.376;2023-07-13T10:59:40;4.63;;;1.20;;
51792;SDS011;37850;53.178;6.376;2023-07-13T11:02:13;5.05;;;1.10;;
51792;SDS011;37850;53.178;6.376;2023-07-13T11:04:48;4.53;;;1.10;;
51792;SDS011;37850;53.178;6.376;2023-07-13T11:07:22;4.50;;;1.13;;
51792;SDS011;37850;53.178;6.376;2023-07-13T11:09:57;7.97;;;1.23;;
51792;SDS011;37850;53.178;6.376;2023-07-13T11:12:27;5.68;;;1.40;;
51792;SDS011;37850;53.178;6.376;2023-07-13T11:15:13;6.13;;;1.40;;
51792;SDS011;37850;53.178;6.376;2023-07-13T11:17:50;6.00;;;1.38;;
51792;SDS011;37850;53.178;6.376;2023-07-13T11:25:41;6.05;;;1.45;;
51792;SDS011;37850;53.178;6.376;2023-07-13T11:30:40;4.35;;;1.42;;
51792;SDS011;37850;53.178;6.376;2023-07-13T11:33:22;5.05;;;1.20;;
51792;SDS011;37850;53.178;6.376;2023-07-13T11:36:15;5.72;;;1.38;;
51792;SDS011;37850;53.178;6.376;2023-07-13T11:41:48;5.72;;;1.90;;
51792;SDS011;37850;53.178;6.376;2023-07-13T11:44:16;4.47;;;1.30;;
51792;SDS011;37850;53.178;6.376;2023-07-13T11:46:49;4.75;;;1.42;;
51792;SDS011;37850;53.178;6.376;2023-07-13T11:49:20;5.38;;;1.20;;
51792;SDS011;37850;53.178;6.376;2023-07-13T11:51:47;6.15;;;1.55;;
51792;SDS011;37850;53.178;6.376;2023-07-13T11:56:53;7.00;;;1.55;;
51792;SDS011;37850;53.178;6.376;2023-07-13T11:59:23;5.88;;;1.35;;
51792;SDS011;37850;53.178;6.376;2023-07-13T12:01:51;6.35;;;2.05;;
51792;SDS011;37850;53.178;6.376;2023-07-13T12:04:31;6.28;;;1.50;;
51792;SDS011;37850;53.178;6.376;2023-07-13T12:07:15;6.00;;;1.30;;
51792;SDS011;37850;53.178;6.376;2023-07-13T12:09:43;5.03;;;1.20;;
51792;SDS011;37850;53.178;6.376;2023-07-13T12:12:13;5.72;;;1.20;;
51792;SDS011;37850;53.178;6.376;2023-07-13T12:14:41;6.32;;;1.27;;
51792;SDS011;37850;53.178;6.376;2023-07-13T12:17:16;5.90;;;1.50;;
51792;SDS011;37850;53.178;6.376;2023-07-13T12:19:50;5.90;;;1.27;;
51792;SDS011;37850;53.178;6.376;2023-07-13T12:22:18;4.38;;;1.20;;
51792;SDS011;37850;53.178;6.376;2023-07-13T12:24:45;4.22;;;1.38;;
51792;SDS011;37850;53.178;6.376;2023-07-13T12:30:03;4.82;;;1.65;;
51792;SDS011;37850;53.178;6.376;2023-07-13T12:32:31;6.55;;;1.50;;
51792;SDS011;37850;53.178;6.376;2023-07-13T12:35:02;5.07;;;1.27;;
51792;SDS011;37850;53.178;6.376;2023-07-13T12:37:45;4.80;;;1.38;;
51792;SDS011;37850;53.178;6.376;2023-07-13T12:42:43;5.07;;;1.30;;
51792;SDS011;37850;53.178;6.376;2023-07-13T12:45:24;5.07;;;1.42;;
51792;SDS011;37850;53.178;6.376;2023-07-13T12:47:54;9.98;;;1.67;;
51792;SDS011;37850;53.178;6.376;2023-07-13T12:50:36;4.68;;;1.20;;
51792;SDS011;37850;53.178;6.376;2023-07-13T12:53:12;5.32;;;1.35;;
51792;SDS011;37850;53.178;6.376;2023-07-13T12:55:40;3.92;;;1.20;;
51792;SDS011;37850;53.178;6.376;2023-07-13T13:01:09;5.05;;;1.35;;
51792;SDS011;37850;53.178;6.376;2023-07-13T13:03:45;6.10;;;1.88;;
51792;SDS011;37850;53.178;6.376;2023-07-13T13:08:48;4.70;;;1.20;;
51792;SDS011;37850;53.178;6.376;2023-07-13T13:11:15;4.90;;;1.10;;
51792;SDS011;37850;53.178;6.376;2023-07-13T13:13:42;4.68;;;1.00;;
51792;SDS011;37850;53.178;6.376;2023-07-13T13:16:18;5.35;;;1.27;;
51792;SDS011;37850;53.178;6.376;2023-07-13T13:18:45;5.88;;;1.10;;
51792;SDS011;37850;53.178;6.376;2023-07-13T13:21:11;5.85;;;1.35;;
51792;SDS011;37850;53.178;6.376;2023-07-13T13:23:37;5.95;;;1.38;;
51792;SDS011;37850;53.178;6.376;2023-07-13T13:26:05;6.70;;;1.30;;
51792;SDS011;37850;53.178;6.376;2023-07-13T13:28:34;5.18;;;1.42;;
51792;SDS011;37850;53.178;6.376;2023-07-13T13:31:00;9.23;;;1.70;;
51792;SDS011;37850;53.178;6.376;2023-07-13T13:33:25;10.48;;;2.08;;
51792;SDS011;37850;53.178;6.376;2023-07-13T13:35:51;7.15;;;1.77;;
51792;SDS011;37850;53.178;6.376;2023-07-13T13:38:19;7.28;;;1.70;;
51792;SDS011;37850;53.178;6.376;2023-07-13T13:40:50;8.60;;;1.70;;
51792;SDS011;37850;53.178;6.376;2023-07-13T13:43:17;6.13;;;1.83;;
51792;SDS011;37850;53.178;6.376;2023-07-13T13:45:44;8.95;;;1.85;;
51792;SDS011;37850;53.178;6.376;2023-07-13T13:48:18;7.85;;;1.77;;
51792;SDS011;37850;53.178;6.376;2023-07-13T13:50:47;7.00;;;1.55;;
51792;SDS011;37850;53.178;6.376;2023-07-13T13:53:14;8.70;;;1.85;;
51792;SDS011;37850;53.178;6.376;2023-07-13T13:55:40;5.63;;;1.60;;
51792;SDS011;37850;53.178;6.376;2023-07-13T13:58:08;7.85;;;1.70;;
51792;SDS011;37850;53.178;6.376;2023-07-13T14:00:37;7.68;;;1.45;;
51792;SDS011;37850;53.178;6.376;2023-07-13T14:03:03;7.47;;;1.60;;
51792;SDS011;37850;53.178;6.376;2023-07-13T14:05:31;6.13;;;1.75;;
51792;SDS011;37850;53.178;6.376;2023-07-13T14:07:57;9.18;;;1.92;;
51792;SDS011;37850;53.178;6.376;2023-07-13T14:10:22;8.95;;;1.70;;
51792;SDS011;37850;53.178;6.376;2023-07-13T14:12:51;8.43;;;1.60;;
51792;SDS011;37850;53.178;6.376;2023-07-13T14:15:26;5.80;;;1.60;;
51792;SDS011;37850;53.178;6.376;2023-07-13T14:17:53;7.63;;;2.00;;
51792;SDS011;37850;53.178;6.376;2023-07-13T14:20:20;4.85;;;1.30;;
51792;SDS011;37850;53.178;6.376;2023-07-13T14:22:49;8.60;;;1.55;;
51792;SDS011;37850;53.178;6.376;2023-07-13T14:25:15;7.25;;;1.70;;
51792;SDS011;37850;53.178;6.376;2023-07-13T14:27:43;4.90;;;1.48;;
51792;SDS011;37850;53.178;6.376;2023-07-13T14:32:40;6.00;;;1.40;;
51792;SDS011;37850;53.178;6.376;2023-07-13T14:35:07;6.38;;;1.58;;
51792;SDS011;37850;53.178;6.376;2023-07-13T14:37:40;7.07;;;1.52;;
51792;SDS011;37850;53.178;6.376;2023-07-13T14:40:16;7.88;;;1.60;;
51792;SDS011;37850;53.178;6.376;2023-07-13T14:42:49;5.68;;;1.33;;
51792;SDS011;37850;53.178;6.376;2023-07-13T14:45:16;8.27;;;1.73;;
51792;SDS011;37850;53.178;6.376;2023-07-13T14:47:43;6.93;;;1.55;;
51792;SDS011;37850;53.178;6.376;2023-07-13T14:50:14;7.72;;;2.35;;
51792;SDS011;37850;53.178;6.376;2023-07-13T14:52:41;7.97;;;2.15;;
51792;SDS011;37850;53.178;6.376;2023-07-13T14:55:11;8.23;;;1.58;;
51792;SDS011;37850;53.178;6.376;2023-07-13T14:57:38;11.30;;;1.80;;
51792;SDS011;37850;53.178;6.376;2023-07-13T15:00:05;6.53;;;1.85;;
51792;SDS011;37850;53.178;6.376;2023-07-13T15:02:40;6.88;;;1.80;;
51792;SDS011;37850;53.178;6.376;2023-07-13T15:05:15;9.23;;;2.38;;
51792;SDS011;37850;53.178;6.376;2023-07-13T15:07:52;9.70;;;2.40;;
51792;SDS011;37850;53.178;6.376;2023-07-13T15:12:46;9.02;;;2.15;;
51792;SDS011;37850;53.178;6.376;2023-07-13T15:15:12;11.75;;;1.77;;
51792;SDS011;37850;53.178;6.376;2023-07-13T15:17:39;11.05;;;1.73;;
51792;SDS011;37850;53.178;6.376;2023-07-13T15:20:19;6.93;;;1.80;;
51792;SDS011;37850;53.178;6.376;2023-07-13T15:22:50;8.55;;;2.17;;
51792;SDS011;37850;53.178;6.376;2023-07-13T15:25:17;9.27;;;1.83;;
51792;SDS011;37850;53.178;6.376;2023-07-13T15:27:44;9.73;;;1.90;;
51792;SDS011;37850;53.178;6.376;2023-07-13T15:30:11;7.45;;;1.88;;
51792;SDS011;37850;53.178;6.376;2023-07-13T15:32:38;7.95;;;1.83;;
51792;SDS011;37850;53.178;6.376;2023-07-13T15:35:04;8.25;;;1.73;;
51792;SDS011;37850;53.178;6.376;2023-07-13T15:37:34;7.82;;;1.70;;
51792;SDS011;37850;53.178;6.376;2023-07-13T15:40:00;8.18;;;1.65;;
51792;SDS011;37850;53.178;6.376;2023-07-13T15:42:26;7.70;;;1.85;;
51792;SDS011;37850;53.178;6.376;2023-07-13T15:44:52;8.63;;;1.92;;
51792;SDS011;37850;53.178;6.376;2023-07-13T15:47:18;7.60;;;2.20;;
51792;SDS011;37850;53.178;6.376;2023-07-13T15:49:44;5.13;;;1.27;;
51792;SDS011;37850;53.178;6.376;2023-07-13T15:52:20;9.38;;;1.67;;